Metar z połowy godziny Komunikat METAR ze strony awiacja.imgw.pl Metar G00 EPRZ METAR EPRZ 261130Z 27016KT 9999 -SN BKN013 BKN038 00/M02 Q1007 RESN R27/52//95 =